This is the latest recevied weather packets stored in our database for station/object OE5RBO. If no packets are shown the sender has not sent any weather packets the latest 10 day(s).
| Time | Temp. | Humidity | Pressure | Rain* | Wind** | Luminosity | Snow |
|---|---|---|---|---|---|---|---|
| 1787755081 | 27.78° C | 57% | 1017.3 hPa | 0.25 mm | - | - | - |
| 1787753880 | 27.22° C | 58% | 1017.4 hPa | 0.25 mm | - | - | - |
| 1787753280 | 27.78° C | 58% | 1017.3 hPa | 0.25 mm | - | - | - |
| 1787752679 | 27.78° C | 57% | 1017.4 hPa | 0.25 mm | - | - | - |
| 1787752079 | 27.78° C | 57% | 1017.4 hPa | 0.25 mm | - | - | - |
| 1787751478 | 26.67° C | 61% | 1017.4 hPa | 0.25 mm | - | - | - |
| 1787750278 | 26.67° C | 63% | 1017.4 hPa | 0.25 mm | - | - | - |
| 1787749677 | 26.11° C | 67% | 1017.5 hPa | 0.25 mm | - | - | - |
| 1787749078 | 26.67° C | 65% | 1017.5 hPa | 0.25 mm | - | - | - |
| 1787747876 | 25.56° C | 66% | 1017.6 hPa | 0.25 mm | - | - | - |
| 1787747276 | 25.56° C | 66% | 1017.6 hPa | 0.25 mm | - | - | - |
| 1787746675 | 26.11° C | 66% | 1017.6 hPa | 0.25 mm | - | - | - |
| 1787746075 | 26.67° C | 64% | 1017.7 hPa | 0.25 mm | - | - | - |
| 1787744875 | 26.67° C | 65% | 1017.7 hPa | 0.25 mm | - | - | - |
| 1787744274 | 26.11° C | 67% | 1017.9 hPa | 0.25 mm | - | - | - |
| 1787743073 | 27.22° C | 66% | 1017.9 hPa | 0.25 mm | - | - | - |
| 1787742473 | 26.67° C | 69% | 1017.9 hPa | 0.25 mm | - | - | - |
| 1787740672 | 26.67° C | 65% | 1018.1 hPa | 0.25 mm | - | - | - |
| 1787740071 | 25.56° C | 71% | 1018.2 hPa | 0.25 mm | - | - | - |
| 1787739471 | 25.56° C | 69% | 1018.2 hPa | 0.25 mm | - | - | - |
| 1787738871 | 25° C | 70% | 1018.1 hPa | 0.25 mm | - | - | - |
| 1787738270 | 25.56° C | 68% | 1018.1 hPa | 0.25 mm | - | - | - |
| 1787737670 | 24.44° C | 74% | 1018.2 hPa | 0.25 mm | - | - | - |
| 1787737069 | 24.44° C | 77% | 1018.2 hPa | 0.25 mm | - | - | - |
| 1787736469 | 23.33° C | 77% | 1018.3 hPa | 0.25 mm | - | - | - |
* Rain since midnight (hover to see other rain measurements)
** Current wind speed in m/s (hover to see current wind gust speed)